createdAt,value
2018-11-14T00:01:01.498Z,29.60
2018-11-14T00:03:32.113Z,29.93
2018-11-14T00:06:02.464Z,27.60
2018-11-14T00:08:32.639Z,29.27
2018-11-14T00:11:03.263Z,27.53
2018-11-14T00:13:34.023Z,30.43
2018-11-14T00:16:04.884Z,32.27
2018-11-14T00:18:35.099Z,30.57
2018-11-14T00:21:05.723Z,30.17
2018-11-14T00:23:35.954Z,28.13
2018-11-14T00:26:06.623Z,27.57
2018-11-14T00:28:36.972Z,28.17
2018-11-14T00:31:07.253Z,27.60
2018-11-14T00:33:37.389Z,28.43
2018-11-14T00:36:07.563Z,27.57
2018-11-14T00:38:37.698Z,28.10
2018-11-14T00:41:07.890Z,31.93
2018-11-14T00:43:38.323Z,35.57
2018-11-14T00:46:08.653Z,35.70
2018-11-14T00:48:38.974Z,37.83
2018-11-14T00:51:09.143Z,37.57
2018-11-14T00:53:39.513Z,37.17
2018-11-14T00:56:09.568Z,36.67
2018-11-14T00:58:39.692Z,36.77
2018-11-14T01:01:09.703Z,32.80
2018-11-14T01:03:39.923Z,32.53
2018-11-14T01:06:10.148Z,32.63
2018-11-14T01:08:40.138Z,34.17
2018-11-14T01:11:10.372Z,35.10
2018-11-14T01:13:40.373Z,33.83
2018-11-14T01:16:10.409Z,30.97
2018-11-14T01:18:40.583Z,30.73
2018-11-14T01:21:10.703Z,28.70
2018-11-14T01:23:40.733Z,27.27
2018-11-14T01:26:11.464Z,28.20
2018-11-14T01:28:41.842Z,25.90
2018-11-14T01:31:12.294Z,26.60
2018-11-14T01:33:42.848Z,27.47
2018-11-14T01:36:13.199Z,29.73
2018-11-14T01:38:43.809Z,29.23
2018-11-14T01:41:14.233Z,32.40
2018-11-14T01:43:44.718Z,31.83
2018-11-14T01:46:15.064Z,27.27
2018-11-14T01:48:45.428Z,26.10
2018-11-14T01:51:16.008Z,32.60
2018-11-14T01:53:46.228Z,28.90
2018-11-14T01:56:16.688Z,28.83
2018-11-14T01:58:46.613Z,30.93
2018-11-14T02:01:16.859Z,33.10
2018-11-14T02:03:47.223Z,30.53
2018-11-14T02:06:17.403Z,35.97
2018-11-14T02:08:47.583Z,32.17
2018-11-14T02:11:17.776Z,37.90
2018-11-14T02:13:48.053Z,32.10
2018-11-14T02:16:18.390Z,27.07
2018-11-14T02:18:48.563Z,27.23
2018-11-14T02:21:18.768Z,32.70
2018-11-14T02:23:49.137Z,40.73
2018-11-14T02:26:19.268Z,34.53
2018-11-14T02:28:51.542Z,30.37
2018-11-14T02:31:21.993Z,28.70
2018-11-14T02:33:52.553Z,31.97
2018-11-14T02:36:22.728Z,30.93
2018-11-14T02:38:53.158Z,29.27
2018-11-14T02:41:23.312Z,29.50
2018-11-14T02:43:53.435Z,25.63
2018-11-14T02:46:23.530Z,28.47
2018-11-14T02:48:53.614Z,27.00
2018-11-14T02:51:27.724Z,29.63
2018-11-14T02:53:57.998Z,24.80
2018-11-14T02:56:27.769Z,26.00
2018-11-14T02:58:57.704Z,27.77
2018-11-14T03:01:27.566Z,31.37
2018-11-14T03:03:57.464Z,29.63
2018-11-14T03:06:27.290Z,28.60
2018-11-14T03:08:57.173Z,28.70
2018-11-14T03:11:27.009Z,32.63
2018-11-14T03:13:56.783Z,31.33
2018-11-14T03:16:26.573Z,32.03
2018-11-14T03:18:56.373Z,36.27
2018-11-14T03:21:26.552Z,35.57
2018-11-14T03:23:56.828Z,32.40
2018-11-14T03:26:27.153Z,39.03
2018-11-14T03:28:57.188Z,39.00
2018-11-14T03:31:27.288Z,40.60
2018-11-14T03:33:57.328Z,47.37
2018-11-14T03:36:27.377Z,50.90
2018-11-14T03:38:57.542Z,48.77
2018-11-14T03:41:27.708Z,46.40
2018-11-14T03:43:57.693Z,47.83
2018-11-14T03:46:27.968Z,51.53
2018-11-14T03:48:58.052Z,49.83
2018-11-14T03:51:28.073Z,44.40
2018-11-14T03:53:58.023Z,50.40
2018-11-14T03:56:28.183Z,49.00
2018-11-14T03:58:58.188Z,47.27
2018-11-14T04:01:28.253Z,50.93
2018-11-14T04:03:58.283Z,45.13
2018-11-14T04:06:28.464Z,47.07
2018-11-14T04:08:58.763Z,51.70
2018-11-14T04:11:28.838Z,53.13
2018-11-14T04:13:59.882Z,52.63
2018-11-14T04:16:29.988Z,50.40
2018-11-14T04:19:00.403Z,46.77
2018-11-14T04:21:30.743Z,46.80
2018-11-14T04:24:00.873Z,45.90
2018-11-14T04:26:31.005Z,46.73
2018-11-14T04:29:01.353Z,45.80
2018-11-14T04:31:31.573Z,46.33
2018-11-14T04:34:02.057Z,44.77
2018-11-14T04:36:32.118Z,45.57
2018-11-14T04:39:02.263Z,45.90
2018-11-14T04:41:32.488Z,48.23
2018-11-14T04:44:02.668Z,44.50
2018-11-14T04:46:33.015Z,44.10
2018-11-14T04:49:03.199Z,43.93
2018-11-14T04:51:33.418Z,43.87
2018-11-14T04:54:03.728Z,41.50
2018-11-14T04:56:33.973Z,41.83
2018-11-14T04:59:04.297Z,42.93
2018-11-14T05:01:34.328Z,40.33
2018-11-14T05:04:04.632Z,37.40
2018-11-14T05:06:34.848Z,35.20
2018-11-14T05:09:05.318Z,37.97
2018-11-14T05:11:35.383Z,40.27
2018-11-14T05:14:05.743Z,42.53
2018-11-14T05:16:36.218Z,43.83
2018-11-14T05:19:06.653Z,46.07
2018-11-14T05:21:36.598Z,47.13
2018-11-14T05:24:06.589Z,46.13
2018-11-14T05:26:36.403Z,49.13
2018-11-14T05:29:07.253Z,50.23
2018-11-14T05:31:37.130Z,49.33
2018-11-14T05:34:07.303Z,50.87
2018-11-14T05:36:37.174Z,51.70
2018-11-14T05:39:10.188Z,49.00
2018-11-14T05:41:40.525Z,47.73
2018-11-14T05:44:10.558Z,48.23
2018-11-14T05:46:40.672Z,45.30
2018-11-14T05:49:10.683Z,44.60
2018-11-14T05:51:40.704Z,43.93
2018-11-14T05:54:10.723Z,44.10
2018-11-14T05:56:40.693Z,45.33
2018-11-14T05:59:10.808Z,43.83
2018-11-14T06:01:41.023Z,43.27
2018-11-14T06:04:11.839Z,42.53
2018-11-14T06:06:42.422Z,41.13
2018-11-14T06:09:14.164Z,40.07
2018-11-14T06:11:44.328Z,40.90
2018-11-14T06:14:14.663Z,40.70
2018-11-14T06:16:45.700Z,40.43
2018-11-14T06:19:16.103Z,40.03
2018-11-14T06:21:46.252Z,39.00
2018-11-14T06:24:16.380Z,42.47
2018-11-14T06:26:46.488Z,40.83
2018-11-14T06:29:16.636Z,41.93
2018-11-14T06:31:46.858Z,39.63
2018-11-14T06:34:16.878Z,39.07
2018-11-14T06:36:46.919Z,39.00
2018-11-14T06:39:17.073Z,37.80
2018-11-14T06:41:47.295Z,37.83
2018-11-14T06:44:17.378Z,37.43
2018-11-14T06:46:47.773Z,36.20
2018-11-14T06:49:17.968Z,36.60
2018-11-14T06:51:48.049Z,37.13
2018-11-14T06:54:18.328Z,38.10
2018-11-14T06:56:48.524Z,36.27
2018-11-14T06:59:18.678Z,38.80
2018-11-14T07:01:49.088Z,39.70
2018-11-14T07:04:19.173Z,37.30
2018-11-14T07:06:49.723Z,38.30
2018-11-14T07:09:19.949Z,40.17
2018-11-14T07:12:00.033Z,40.23
2018-11-14T07:14:31.318Z,39.23
2018-11-14T07:17:01.399Z,38.33
2018-11-14T07:19:31.797Z,40.63
2018-11-14T07:22:02.018Z,39.53
2018-11-14T07:24:32.198Z,40.80
2018-11-14T07:27:02.393Z,39.57
2018-11-14T07:29:32.554Z,38.30
2018-11-14T07:32:02.857Z,39.33
2018-11-14T07:34:32.939Z,39.80
2018-11-14T07:37:03.623Z,39.17
2018-11-14T07:39:33.758Z,38.70
2018-11-14T07:42:04.004Z,37.57
2018-11-14T07:44:34.093Z,38.83
2018-11-14T07:47:04.279Z,37.97
2018-11-14T07:49:34.458Z,36.13
2018-11-14T07:52:04.548Z,37.73
2018-11-14T07:54:35.122Z,37.20
2018-11-14T07:57:05.418Z,36.23
2018-11-14T07:59:35.558Z,35.90
2018-11-14T08:02:05.926Z,36.73
2018-11-14T08:04:35.934Z,33.97
2018-11-14T08:07:06.269Z,33.10
2018-11-14T08:09:36.819Z,32.90
2018-11-14T08:12:06.969Z,34.67
2018-11-14T08:14:37.193Z,32.97
2018-11-14T08:17:07.227Z,30.10
2018-11-14T08:19:37.143Z,31.63
2018-11-14T08:22:07.328Z,33.77
2018-11-14T08:24:37.444Z,32.53
2018-11-14T08:27:07.774Z,32.40
2018-11-14T08:29:38.304Z,34.37
2018-11-14T08:32:08.419Z,35.67
2018-11-14T08:34:38.233Z,34.60
2018-11-14T08:37:08.094Z,36.43
2018-11-14T08:39:37.909Z,33.50
2018-11-14T08:42:08.060Z,34.57
2018-11-14T08:44:38.254Z,34.33
2018-11-14T08:47:08.464Z,33.40
2018-11-14T08:49:38.568Z,31.90
2018-11-14T08:52:08.570Z,33.00
2018-11-14T08:54:38.638Z,33.93
2018-11-14T08:57:08.714Z,34.27
2018-11-14T08:59:38.909Z,33.83
2018-11-14T09:02:08.984Z,35.23
2018-11-14T09:04:39.439Z,35.00
2018-11-14T09:07:09.664Z,36.37
2018-11-14T09:09:40.058Z,34.93
2018-11-14T09:12:10.650Z,35.63
2018-11-14T09:14:40.788Z,37.87
2018-11-14T09:17:10.954Z,38.23
2018-11-14T09:19:41.088Z,36.90
2018-11-14T09:22:11.269Z,37.37
2018-11-14T09:24:41.372Z,34.87
2018-11-14T09:27:11.684Z,34.27
2018-11-14T09:29:42.004Z,38.47
2018-11-14T09:32:13.879Z,37.90
2018-11-14T09:34:43.909Z,36.47
2018-11-14T09:37:13.876Z,36.93
2018-11-14T09:39:43.793Z,37.17
2018-11-14T09:42:13.768Z,36.40
2018-11-14T09:44:43.799Z,36.40
2018-11-14T09:47:14.134Z,38.03
2018-11-14T09:49:44.034Z,38.17
2018-11-14T09:52:14.189Z,40.00
2018-11-14T09:54:43.953Z,40.73
2018-11-14T09:57:14.088Z,39.10
2018-11-14T09:59:44.008Z,38.70
2018-11-14T10:02:13.998Z,38.90
2018-11-14T10:04:44.144Z,38.97
2018-11-14T10:07:14.873Z,38.93
2018-11-14T10:09:44.866Z,38.50
2018-11-14T10:12:14.908Z,37.00
2018-11-14T10:14:45.229Z,38.87
2018-11-14T10:17:15.208Z,37.57
2018-11-14T10:19:45.308Z,39.00
2018-11-14T10:22:15.610Z,37.33
2018-11-14T10:24:45.888Z,35.67
2018-11-14T10:27:16.178Z,39.23
2018-11-14T10:29:46.238Z,41.67
2018-11-14T10:32:16.508Z,36.33
2018-11-14T10:34:46.528Z,39.60
2018-11-14T10:37:16.775Z,36.90
2018-11-14T10:39:46.929Z,35.73
2018-11-14T10:42:17.193Z,34.37
2018-11-14T10:44:47.094Z,34.90
2018-11-14T10:47:17.047Z,34.90
2018-11-14T10:49:46.998Z,36.43
2018-11-14T10:52:17.028Z,33.23
2018-11-14T10:54:48.313Z,31.67
2018-11-14T10:57:18.718Z,33.93
2018-11-14T10:59:48.993Z,33.50
2018-11-14T11:02:24.637Z,32.40
2018-11-14T11:06:02.010Z,30.90
2018-11-14T11:08:37.061Z,33.13
2018-11-14T11:11:12.258Z,32.50
2018-11-14T11:14:14.148Z,34.80
2018-11-14T11:16:49.715Z,33.87
2018-11-14T11:19:22.338Z,33.13
2018-11-14T11:21:52.588Z,31.50
2018-11-14T11:24:23.528Z,34.73
2018-11-14T11:26:53.709Z,34.63
2018-11-14T11:29:23.858Z,34.57
2018-11-14T11:31:54.809Z,35.40
2018-11-14T11:34:25.107Z,35.73
2018-11-14T11:36:55.338Z,36.57
2018-11-14T11:39:25.647Z,35.70
2018-11-14T11:41:55.702Z,36.50
2018-11-14T11:44:25.981Z,36.13
2018-11-14T11:46:56.168Z,35.90
2018-11-14T11:49:26.482Z,36.30
2018-11-14T11:51:56.603Z,36.93
2018-11-14T11:54:26.812Z,37.40
2018-11-14T11:56:57.293Z,37.20
2018-11-14T11:59:27.555Z,33.57
2018-11-14T12:01:57.900Z,36.60
2018-11-14T12:04:27.968Z,37.20
2018-11-14T12:06:57.808Z,37.10
2018-11-14T12:09:27.557Z,37.70
2018-11-14T12:11:57.343Z,37.07
2018-11-14T12:14:27.358Z,39.10
2018-11-14T12:16:57.233Z,38.80
2018-11-14T12:19:27.041Z,39.23
2018-11-14T12:21:56.810Z,39.23
2018-11-14T12:24:26.857Z,38.17
2018-11-14T12:26:56.858Z,39.40
2018-11-14T12:29:26.899Z,38.63
2018-11-14T12:31:56.971Z,38.87
2018-11-14T12:34:27.549Z,37.83
2018-11-14T12:36:57.907Z,36.03
2018-11-14T12:39:28.094Z,36.53
2018-11-14T12:41:57.859Z,38.53
2018-11-14T12:44:27.723Z,39.87
2018-11-14T12:46:57.588Z,39.50
2018-11-14T12:49:27.733Z,38.03
2018-11-14T12:51:57.723Z,39.87
2018-11-14T12:54:27.828Z,38.67
2018-11-14T12:56:57.853Z,39.90
2018-11-14T12:59:27.963Z,38.67
2018-11-14T13:01:58.242Z,36.73
2018-11-14T13:04:28.437Z,38.07
2018-11-14T13:06:58.348Z,38.20
2018-11-14T13:09:28.440Z,38.03
2018-11-14T13:11:58.413Z,38.73
2018-11-14T13:14:28.494Z,36.47
2018-11-14T13:16:58.493Z,37.27
2018-11-14T13:19:29.093Z,39.37
2018-11-14T13:21:59.474Z,38.37
2018-11-14T13:24:29.463Z,38.80
2018-11-14T13:26:59.932Z,37.73
2018-11-14T13:29:30.278Z,38.13
2018-11-14T13:32:00.353Z,39.23
2018-11-14T13:34:30.495Z,39.77
2018-11-14T13:37:00.768Z,38.67
2018-11-14T13:39:30.823Z,39.87
2018-11-14T13:42:00.918Z,39.27
2018-11-14T13:44:31.208Z,39.97
2018-11-14T13:47:01.500Z,39.53
2018-11-14T13:49:31.521Z,39.63
2018-11-14T13:52:01.718Z,38.53
2018-11-14T13:54:32.003Z,39.63
2018-11-14T13:57:02.079Z,38.57
2018-11-14T13:59:32.229Z,38.40
2018-11-14T14:02:02.323Z,40.20
2018-11-14T14:04:32.653Z,39.70
2018-11-14T14:07:02.953Z,38.93
2018-11-14T14:09:33.101Z,41.07
2018-11-14T14:12:03.114Z,41.53
2018-11-14T14:14:33.353Z,39.03
2018-11-14T14:17:03.604Z,40.60
2018-11-14T14:19:33.853Z,37.80
2018-11-14T14:22:03.912Z,39.33
2018-11-14T14:24:34.083Z,38.80
2018-11-14T14:27:04.228Z,41.43
2018-11-14T14:29:34.414Z,38.60
2018-11-14T14:32:04.893Z,39.47
2018-11-14T14:34:35.108Z,40.63
2018-11-14T14:37:05.188Z,40.90
2018-11-14T14:39:35.518Z,40.57
2018-11-14T14:42:05.668Z,39.80
2018-11-14T14:44:35.588Z,38.97
2018-11-14T14:47:05.855Z,38.90
2018-11-14T14:49:35.883Z,41.07
2018-11-14T14:52:06.292Z,41.80
2018-11-14T14:54:36.453Z,41.70
2018-11-14T14:57:06.518Z,43.53
2018-11-14T14:59:36.568Z,40.63
2018-11-14T15:02:07.228Z,41.77
2018-11-14T15:04:37.273Z,41.73
2018-11-14T15:07:07.368Z,42.73
2018-11-14T15:09:37.342Z,41.83
2018-11-14T15:12:07.813Z,41.97
2018-11-14T15:14:37.992Z,39.33
2018-11-14T15:17:08.278Z,39.87
2018-11-14T15:19:38.388Z,41.07
2018-11-14T15:22:08.348Z,41.93
2018-11-14T15:24:39.188Z,41.43
2018-11-14T15:27:09.362Z,41.20
2018-11-14T15:29:39.664Z,41.37
2018-11-14T15:32:09.998Z,43.10
2018-11-14T15:34:40.198Z,41.03
2018-11-14T15:37:10.430Z,41.40
2018-11-14T15:39:40.348Z,42.33
2018-11-14T15:42:10.549Z,40.50
2018-11-14T15:44:40.733Z,40.40
2018-11-14T15:47:10.938Z,42.50
2018-11-14T15:49:41.153Z,40.77
2018-11-14T15:52:11.219Z,41.97
2018-11-14T15:54:42.783Z,43.40
2018-11-14T15:57:12.878Z,40.97
2018-11-14T15:59:43.084Z,40.47
2018-11-14T16:02:13.313Z,41.17
2018-11-14T16:04:43.573Z,42.17
2018-11-14T16:07:13.823Z,40.13
2018-11-14T16:09:44.089Z,41.47
2018-11-14T16:12:14.316Z,42.13
2018-11-14T16:14:44.568Z,40.37
2018-11-14T16:17:14.537Z,39.87
2018-11-14T16:19:44.748Z,39.53
2018-11-14T16:22:14.882Z,40.10
2018-11-14T16:24:45.123Z,42.40
2018-11-14T16:27:15.393Z,41.30
2018-11-14T16:29:45.656Z,41.47
2018-11-14T16:32:15.919Z,42.40
2018-11-14T16:34:45.888Z,43.00
2018-11-14T16:37:15.938Z,41.40
2018-11-14T16:39:46.538Z,42.13
2018-11-14T16:42:16.798Z,43.73
2018-11-14T16:44:47.039Z,42.40
2018-11-14T16:47:17.103Z,44.90
2018-11-14T16:49:47.838Z,43.70
2018-11-14T16:52:18.163Z,42.57
2018-11-14T16:54:48.178Z,43.80
2018-11-14T16:57:18.348Z,42.97
2018-11-14T16:59:48.451Z,43.50
2018-11-14T17:02:18.959Z,42.00
2018-11-14T17:04:49.433Z,42.40
2018-11-14T17:07:19.909Z,42.70
2018-11-14T17:09:50.178Z,43.20
2018-11-14T17:12:20.828Z,42.83
2018-11-14T17:14:51.037Z,42.23
2018-11-14T17:17:21.648Z,40.10
2018-11-14T17:19:52.176Z,39.00
2018-11-14T17:22:22.710Z,39.87
2018-11-14T17:24:52.968Z,40.43
2018-11-14T17:27:23.634Z,38.90
2018-11-14T17:29:54.168Z,40.33
2018-11-14T17:32:24.214Z,41.07
2018-11-14T17:34:54.692Z,41.67
2018-11-14T17:37:24.994Z,43.40
2018-11-14T17:39:55.178Z,42.50
2018-11-14T17:42:25.905Z,40.63
2018-11-14T17:44:56.083Z,43.97
2018-11-14T17:47:26.128Z,41.33
2018-11-14T17:49:56.668Z,40.97
2018-11-14T17:52:26.974Z,41.57
2018-11-14T17:54:57.401Z,41.63
2018-11-14T17:57:27.385Z,41.17
2018-11-14T17:59:57.583Z,42.27
2018-11-14T18:02:27.773Z,39.60
2018-11-14T18:04:58.138Z,41.27
2018-11-14T18:07:28.473Z,39.97
2018-11-14T18:09:58.486Z,40.57
2018-11-14T18:12:28.643Z,41.50
2018-11-14T18:14:59.048Z,40.53
2018-11-14T18:17:29.377Z,41.47
2018-11-14T18:19:59.518Z,41.23
2018-11-14T18:22:31.229Z,40.13
2018-11-14T18:25:02.009Z,40.27
2018-11-14T18:27:32.576Z,40.50
2018-11-14T18:30:02.938Z,39.23
2018-11-14T18:32:34.240Z,39.13
2018-11-14T18:35:05.298Z,40.43
2018-11-14T18:37:35.500Z,40.83
2018-11-14T18:40:06.326Z,43.03
2018-11-14T18:42:37.208Z,42.13
2018-11-14T18:45:12.159Z,40.27
2018-11-14T18:47:42.524Z,41.77
2018-11-14T18:50:13.884Z,41.37
2018-11-14T18:52:45.894Z,42.13
2018-11-14T18:55:18.698Z,41.10
2018-11-14T18:57:50.098Z,43.87
2018-11-14T19:00:24.333Z,41.20
2018-11-14T19:02:54.766Z,42.63
2018-11-14T19:05:24.928Z,40.33
2018-11-14T19:07:55.183Z,42.13
2018-11-14T19:10:28.539Z,43.37
2018-11-14T19:12:58.949Z,41.23
2018-11-14T19:15:31.454Z,42.03
2018-11-14T19:18:01.863Z,41.17
2018-11-14T19:20:33.013Z,40.23
2018-11-14T19:23:04.003Z,39.87
2018-11-14T19:25:35.790Z,40.70
2018-11-14T19:28:06.529Z,40.37
2018-11-14T19:30:37.827Z,42.27
2018-11-14T19:33:08.354Z,42.90
2018-11-14T19:35:38.727Z,42.37
2018-11-14T19:38:09.144Z,40.03
2018-11-14T19:40:39.282Z,38.90
2018-11-14T19:43:10.899Z,42.47
2018-11-14T19:45:42.344Z,41.57
2018-11-14T19:48:12.813Z,42.73
2018-11-14T19:50:43.498Z,42.90
2018-11-14T19:53:14.218Z,45.73
2018-11-14T19:55:45.063Z,42.37
2018-11-14T19:58:15.774Z,40.47
2018-11-14T20:00:46.364Z,41.10
2018-11-14T20:03:16.923Z,41.13
2018-11-14T20:05:47.744Z,43.00
2018-11-14T20:08:18.679Z,40.73
2018-11-14T20:10:48.971Z,42.47
2018-11-14T20:13:19.529Z,44.70
2018-11-14T20:15:50.358Z,40.63
2018-11-14T20:18:20.919Z,40.83
2018-11-14T20:20:51.634Z,44.50
2018-11-14T20:23:22.395Z,45.67
2018-11-14T20:25:53.725Z,46.90
2018-11-14T20:28:25.299Z,47.43
2018-11-14T20:30:56.534Z,47.23
2018-11-14T20:33:38.699Z,49.13
2018-11-14T20:36:09.778Z,46.30
2018-11-14T20:38:43.534Z,46.17
2018-11-14T20:41:15.564Z,45.17
2018-11-14T20:43:47.714Z,44.67
2018-11-14T20:46:22.709Z,44.53
2018-11-14T20:48:54.566Z,45.40
2018-11-14T20:51:25.368Z,47.20
2018-11-14T20:53:55.945Z,47.93
2018-11-14T20:56:27.437Z,46.27
2018-11-14T20:58:57.709Z,45.77
2018-11-14T21:01:28.168Z,49.07
2018-11-14T21:03:58.522Z,45.03
2018-11-14T21:06:31.334Z,42.40
2018-11-14T21:09:01.544Z,41.53
2018-11-14T21:11:31.954Z,42.43
2018-11-14T21:14:02.321Z,40.73
2018-11-14T21:16:32.393Z,42.73
2018-11-14T21:19:02.578Z,47.30
2018-11-14T21:21:33.134Z,46.30
2018-11-14T21:24:03.309Z,47.23
2018-11-14T21:26:33.609Z,48.17
2018-11-14T21:29:03.969Z,49.80
2018-11-14T21:31:34.158Z,55.67
2018-11-14T21:34:04.384Z,55.33
2018-11-14T21:36:34.495Z,72.53
2018-11-14T21:39:05.777Z,59.07
2018-11-14T21:41:35.918Z,46.80
2018-11-14T21:44:06.844Z,40.97
2018-11-14T21:46:36.953Z,42.67
2018-11-14T21:49:12.598Z,45.30
2018-11-14T21:51:42.973Z,42.63
2018-11-14T21:54:13.423Z,37.10
2018-11-14T21:56:43.725Z,40.90
2018-11-14T21:59:14.063Z,50.67
2018-11-14T22:01:44.513Z,33.23
2018-11-14T22:04:14.833Z,41.03
2018-11-14T22:06:45.174Z,40.63
2018-11-14T22:09:15.428Z,34.90
2018-11-14T22:11:45.828Z,36.47
2018-11-14T22:14:16.195Z,45.60
2018-11-14T22:16:47.063Z,50.40
2018-11-14T22:19:17.698Z,52.53
2018-11-14T22:21:47.949Z,49.50
2018-11-14T22:24:18.353Z,46.07
2018-11-14T22:26:48.573Z,45.57
2018-11-14T22:29:18.643Z,41.43
2018-11-14T22:31:48.918Z,40.93
2018-11-14T22:34:19.038Z,44.37
2018-11-14T22:36:49.253Z,52.40
2018-11-14T22:39:19.593Z,58.23
2018-11-14T22:41:50.003Z,63.13
2018-11-14T22:44:20.688Z,62.33
2018-11-14T22:46:50.903Z,61.17
2018-11-14T22:49:21.148Z,64.40
2018-11-14T22:51:51.228Z,64.03
2018-11-14T22:54:21.548Z,63.70
2018-11-14T22:56:51.563Z,59.07
2018-11-14T22:59:21.848Z,58.23
2018-11-14T23:01:52.048Z,59.03
2018-11-14T23:04:22.081Z,57.03
2018-11-14T23:06:52.092Z,59.10
2018-11-14T23:09:22.148Z,64.10
2018-11-14T23:11:52.463Z,58.90
2018-11-14T23:14:22.598Z,59.63
2018-11-14T23:16:52.989Z,59.20
2018-11-14T23:19:23.123Z,61.67
2018-11-14T23:21:53.868Z,59.20
2018-11-14T23:24:23.938Z,59.20
2018-11-14T23:26:54.073Z,55.53
2018-11-14T23:29:24.363Z,63.17
2018-11-14T23:31:54.526Z,59.57
2018-11-14T23:34:24.733Z,60.27
2018-11-14T23:36:54.859Z,60.20
2018-11-14T23:39:25.139Z,60.10
2018-11-14T23:41:55.169Z,59.93
2018-11-14T23:44:25.288Z,59.30
2018-11-14T23:46:55.358Z,58.00
2018-11-14T23:49:25.478Z,53.03
2018-11-14T23:51:55.492Z,51.77
2018-11-14T23:54:25.748Z,54.50
2018-11-14T23:56:55.943Z,54.07
2018-11-14T23:59:26.253Z,52.30
